Cincinnati, Ohio
Traffic Map
Current Weather Conditions
Cincinnati, Ohio
Overcast
Overcast
17°
Feels Like: 17°
Wind Chill: 17° Ceiling: 1600
Heat Index: 17° Visibility: 9mi
Dew Point: 14° Wind: 7mph
Humidity: 86% Direction: 160° (SSE)
Pressure: 29.88in Gusts: 0mph
Raw Report DataKLUK 221807Z 16006KT 9SM OVC016 17/14 A2988 RMK AO2 T01670144
Traffic Incident Summary
Active as of:
Severity:
Category:
InformationThere was an issue retrieving the traffic information for this location. Please try a different location or try again shortly.
Advertisements
Track Severe Weather on mobile